MMMX Airport Information

Runway Information
Runway 05L Length 12966 ft width 148 ft
Elevation 7309 ft Threshold 1034 ft Heading 59
Runway 23R Length 12966 ft Width 148 ft
Elevation 7311 ft Threshold 1641 ft Heading 239
Runway 05R Length 12795 ft width 148 ft
Elevation 7316 ft Threshold 1493 ft Heading 59
Runway 23L Length 12795 ft Width 148 ft
Elevation 7295 ft Threshold 0 ft Heading 239
Airport Frequencies
Type APP Name MEXICO APP Frequency 121.2 MHZ
Type ARR Name MEXICO ARR Frequency 129.6 MHZ
Type ATIS Name ATIS Frequency 127.65 MHZ
Type CLD Name MEXICO CLN Frequency 122.1 MHZ
Type DEP Name MEXICO DEP Frequency 120.5 MHZ
Type GND Name GND Frequency 121 MHZ
Type RDO Name MEXICO INF Frequency 126.9 MHZ
Type TWR Name MEXICO TWR Frequency 118.55 MHZ
Airport Navaids
Type VOR-DME Name Mexico Frequency 115600 KHZ
Type NDB Name Plaza Frequency 370 KHZ
Type NDB Name Tepexpan Frequency 359 KHZ
Airport Weather Information & NOTAM
ADDS - METARS form results

(0146 UTC 23 April 2018)
 
METAR text: MMMX 230117Z 36011KT 5SM -TSRA BKN015CB OVC070 18/14 A3028 TEMPO 3SM TSRA RMK 8/96/ HZY RAB15 FQT LTGICCG OVR STN
Conditions at: MMMX (MEXICO CITY/LICE, MX) observed 0117 UTC 23 April 2018
Temperature: 18.0°C (64°F)
Dewpoint: 14.0°C (57°F) [RH = 77%]
Pressure (altimeter): 30.28 inches Hg (1025.5 mb)
Winds: from the N (360 degrees) at 13 MPH (11 knots; 5.7 m/s)
Visibility: 5 miles (8 km)
Ceiling: 1500 feet AGL
Clouds: broken clouds at 1500 feet AGL
overcast cloud deck at 7000 feet AGL
Weather: -TSRA  (light rain associated with thunderstorm(s))

METAR text: MMMX 230102Z 32010KT 4SM TSRA BKN015CB OVC070 18/14 A3028 TEMPO 3SM TSRA RMK 8/96/ HZY RAB00 FQT LTGICCG OVR STN
Conditions at: MMMX (MEXICO CITY/LICE, MX) observed 0102 UTC 23 April 2018
Temperature: 18.0°C (64°F)
Dewpoint: 14.0°C (57°F) [RH = 77%]
Pressure (altimeter): 30.28 inches Hg (1025.5 mb)
Winds: from the NW (320 degrees) at 12 MPH (10 knots; 5.2 m/s)
Visibility: 4 miles (6 km)
Ceiling: 1500 feet AGL
Clouds: broken clouds at 1500 feet AGL
overcast cloud deck at 7000 feet AGL
Weather: TSRA  (rain associated with thunderstorm(s))